Time;durP1;ratioP1;P1;durP2;ratioP2;P2;SDS_P1;SDS_P2;PMS_P1;PMS_P2;Temp;Humidity;BMP_temperature;BMP_pressure;BME280_temperature;BME280_humidity;BME280_pressure;Samples;Min_cycle;Max_cycle;Signal;HPM_P1;HPM_P2
2022/08/09 00:01:03;;;;;;;7.70;5.03;;;;;;;;;;5097417;28;20047;-61
2022/08/09 00:03:30;;;;;;;5.85;4.80;;;;;;;;;;5095807;28;20100;-60
2022/08/09 00:05:57;;;;;;;6.05;4.45;;;;;;;;;;5098522;28;20043;-60
2022/08/09 00:08:24;;;;;;;7.45;5.18;;;;;;;;;;5090984;28;20047;-61
2022/08/09 00:10:52;;;;;;;6.43;5.43;;;;;;;;;;5098584;28;20040;-60
2022/08/09 00:13:20;;;;;;;6.78;5.32;;;;;;;;;;5093772;28;20044;-61
2022/08/09 00:15:47;;;;;;;6.45;4.53;;;;;;;;;;5091254;28;20048;-60
2022/08/09 00:18:16;;;;;;;8.73;5.68;;;;;;;;;;5095371;28;20054;-60
2022/08/09 00:20:43;;;;;;;6.50;5.50;;;;;;;;;;5080495;28;20105;-60
2022/08/09 00:23:10;;;;;;;6.35;4.57;;;;;;;;;;5105323;28;20059;-60
2022/08/09 00:25:37;;;;;;;8.43;4.53;;;;;;;;;;5100520;28;20436;-60
2022/08/09 00:28:05;;;;;;;5.28;4.43;;;;;;;;;;5083062;28;20051;-61
2022/08/09 00:30:34;;;;;;;6.93;4.95;;;;;;;;;;5100367;28;20048;-60
2022/08/09 00:33:01;;;;;;;6.22;4.53;;;;;;;;;;5101697;28;20064;-61
2022/08/09 00:35:28;;;;;;;6.60;5.05;;;;;;;;;;5100407;28;20052;-60
2022/08/09 00:37:55;;;;;;;6.88;4.70;;;;;;;;;;5100948;28;20044;-60
2022/08/09 00:40:23;;;;;;;6.35;4.95;;;;;;;;;;5080356;28;20054;-60
2022/08/09 00:42:50;;;;;;;6.93;4.57;;;;;;;;;;5083509;28;20055;-61
2022/08/09 00:45:17;;;;;;;6.28;4.80;;;;;;;;;;5100352;28;20147;-61
2022/08/09 00:47:46;;;;;;;8.23;5.32;;;;;;;;;;5100876;28;20050;-60
2022/08/09 00:50:13;;;;;;;5.82;4.43;;;;;;;;;;5101229;28;20538;-61
2022/08/09 00:52:41;;;;;;;6.05;5.03;;;;;;;;;;5099024;28;20740;-60
2022/08/09 00:55:09;;;;;;;5.30;4.38;;;;;;;;;;5099423;28;20048;-60
2022/08/09 00:57:36;;;;;;;6.78;5.20;;;;;;;;;;5101056;28;20039;-61
2022/08/09 01:00:07;;;;;;;7.05;4.72;;;;;;;;;;5098100;28;20066;-61
2022/08/09 01:02:36;;;;;;;5.88;4.45;;;;;;;;;;5100797;28;20043;-60
2022/08/09 01:05:08;;;;;;;8.48;4.53;;;;;;;;;;5100515;28;20635;-61
2022/08/09 01:07:39;;;;;;;5.85;4.40;;;;;;;;;;5095506;28;20109;-61
2022/08/09 01:10:11;;;;;;;7.80;4.68;;;;;;;;;;5098094;28;20048;-60
2022/08/09 01:12:41;;;;;;;7.15;4.90;;;;;;;;;;5093984;28;20055;-61
2022/08/09 01:15:09;;;;;;;5.63;4.30;;;;;;;;;;5099075;28;20119;-60
2022/08/09 01:17:38;;;;;;;5.35;3.92;;;;;;;;;;5097446;28;20533;-61
2022/08/09 01:20:08;;;;;;;4.80;4.30;;;;;;;;;;5098970;28;20043;-61
2022/08/09 01:22:42;;;;;;;6.10;5.15;;;;;;;;;;5095336;28;20048;-60
2022/08/09 01:25:25;;;;;;;5.35;4.68;;;;;;;;;;5096856;28;20051;-60
2022/08/09 01:27:55;;;;;;;5.97;4.57;;;;;;;;;;5097552;28;20047;-60
2022/08/09 01:30:24;;;;;;;6.50;4.53;;;;;;;;;;5078757;28;20301;-61
2022/08/09 01:32:52;;;;;;;5.40;4.20;;;;;;;;;;5092843;28;20040;-60
2022/08/09 01:35:22;;;;;;;6.90;4.50;;;;;;;;;;5101705;28;20052;-61
2022/08/09 01:37:50;;;;;;;6.43;3.38;;;;;;;;;;5099012;28;20051;-59
2022/08/09 01:40:19;;;;;;;6.82;4.30;;;;;;;;;;5094061;28;20116;-61
2022/08/09 01:42:47;;;;;;;7.72;4.35;;;;;;;;;;5099381;28;20071;-60
2022/08/09 01:45:15;;;;;;;4.72;3.88;;;;;;;;;;5097223;28;20082;-60
2022/08/09 01:47:43;;;;;;;4.80;4.10;;;;;;;;;;5095242;28;20395;-61
2022/08/09 01:50:12;;;;;;;5.03;3.78;;;;;;;;;;5101106;28;20082;-60
2022/08/09 01:52:40;;;;;;;6.63;4.30;;;;;;;;;;5099814;28;20043;-60
2022/08/09 01:55:08;;;;;;;7.32;4.30;;;;;;;;;;5098685;28;20078;-60
2022/08/09 01:57:37;;;;;;;4.60;3.90;;;;;;;;;;5098422;28;20044;-61
2022/08/09 02:00:06;;;;;;;4.35;3.70;;;;;;;;;;5078217;28;20063;-61
2022/08/09 02:02:36;;;;;;;6.50;3.10;;;;;;;;;;5079817;28;20059;-60
2022/08/09 02:05:06;;;;;;;4.68;2.95;;;;;;;;;;5097747;28;20064;-60
2022/08/09 02:07:35;;;;;;;3.88;2.55;;;;;;;;;;5096283;28;20048;-61
2022/08/09 02:10:04;;;;;;;3.60;2.47;;;;;;;;;;5102651;28;20059;-60
2022/08/09 02:12:32;;;;;;;2.97;2.28;;;;;;;;;;5097924;28;20406;-60
2022/08/09 02:15:01;;;;;;;3.20;2.20;;;;;;;;;;5101577;28;20502;-61
2022/08/09 02:17:30;;;;;;;3.38;2.63;;;;;;;;;;5089643;28;20372;-60
2022/08/09 02:19:58;;;;;;;4.32;2.95;;;;;;;;;;5097423;28;20093;-60
2022/08/09 02:22:30;;;;;;;2.53;2.33;;;;;;;;;;5098926;28;20048;-61
2022/08/09 02:24:58;;;;;;;4.40;2.80;;;;;;;;;;5097929;28;20035;-61
2022/08/09 02:27:26;;;;;;;5.47;3.20;;;;;;;;;;5099299;28;20047;-60
2022/08/09 02:29:54;;;;;;;5.65;3.00;;;;;;;;;;5101917;28;20043;-60
2022/08/09 02:32:23;;;;;;;8.02;2.60;;;;;;;;;;5096551;28;20044;-60
2022/08/09 02:34:52;;;;;;;2.88;2.25;;;;;;;;;;5103447;28;20498;-61
2022/08/09 02:37:22;;;;;;;3.88;2.10;;;;;;;;;;5095236;28;20109;-61
2022/08/09 02:39:50;;;;;;;2.60;2.00;;;;;;;;;;5093676;28;20044;-61
2022/08/09 02:42:19;;;;;;;1.70;1.60;;;;;;;;;;5101404;28;20056;-60
2022/08/09 02:44:48;;;;;;;3.25;1.40;;;;;;;;;;5100684;28;20048;-61
2022/08/09 02:47:16;;;;;;;3.15;1.27;;;;;;;;;;5102295;28;20040;-61
2022/08/09 02:49:46;;;;;;;2.25;1.13;;;;;;;;;;5099325;28;20052;-60
2022/08/09 02:52:15;;;;;;;2.45;1.08;;;;;;;;;;5097247;28;20051;-61
2022/08/09 02:54:44;;;;;;;1.23;1.00;;;;;;;;;;5096256;28;20128;-60
2022/08/09 02:57:12;;;;;;;0.82;0.80;;;;;;;;;;5094467;28;20047;-60
2022/08/09 02:59:40;;;;;;;0.93;0.80;;;;;;;;;;5096747;28;20051;-60
2022/08/09 03:02:11;;;;;;;3.53;0.95;;;;;;;;;;5098046;28;20039;-61
2022/08/09 03:04:39;;;;;;;1.38;1.20;;;;;;;;;;5077274;28;20055;-60
2022/08/09 03:07:07;;;;;;;3.83;1.20;;;;;;;;;;5095993;28;20047;-61
2022/08/09 03:09:34;;;;;;;2.55;1.30;;;;;;;;;;5100468;28;20055;-61
2022/08/09 03:12:03;;;;;;;1.70;1.33;;;;;;;;;;5098010;28;20055;-60
2022/08/09 03:14:30;;;;;;;1.85;1.30;;;;;;;;;;5078197;28;20051;-60
2022/08/09 03:16:59;;;;;;;1.75;1.27;;;;;;;;;;5101546;28;20372;-61
2022/08/09 03:19:27;;;;;;;1.52;1.40;;;;;;;;;;5096529;28;20441;-61
2022/08/09 03:21:56;;;;;;;3.00;1.25;;;;;;;;;;5100098;28;20061;-60
2022/08/09 03:24:23;;;;;;;3.38;1.30;;;;;;;;;;5097899;28;20051;-61
2022/08/09 03:26:51;;;;;;;2.65;1.60;;;;;;;;;;5091876;28;20043;-60
2022/08/09 03:29:20;;;;;;;1.73;1.50;;;;;;;;;;5096216;28;20048;-61
2022/08/09 03:31:48;;;;;;;1.80;1.27;;;;;;;;;;5092274;28;20055;-61
2022/08/09 03:34:15;;;;;;;1.83;1.42;;;;;;;;;;5098027;28;20055;-60
2022/08/09 03:36:42;;;;;;;4.22;1.80;;;;;;;;;;5101490;28;20047;-61
2022/08/09 03:39:09;;;;;;;2.65;1.58;;;;;;;;;;5092359;28;20047;-61
2022/08/09 03:41:37;;;;;;;1.92;1.60;;;;;;;;;;5100023;28;20062;-60
2022/08/09 03:44:04;;;;;;;2.40;1.90;;;;;;;;;;5090459;28;20841;-60
2022/08/09 03:46:33;;;;;;;3.60;1.90;;;;;;;;;;5076360;28;20040;-60
2022/08/09 03:49:01;;;;;;;2.22;1.73;;;;;;;;;;5099663;28;20104;-61
2022/08/09 03:51:29;;;;;;;2.60;1.60;;;;;;;;;;5094455;28;20051;-61
2022/08/09 03:53:57;;;;;;;1.50;1.30;;;;;;;;;;5096558;28;20055;-61
2022/08/09 03:56:24;;;;;;;2.45;1.35;;;;;;;;;;5094784;28;20043;-60
2022/08/09 03:58:51;;;;;;;2.00;1.30;;;;;;;;;;5093779;28;20213;-60
2022/08/09 04:01:19;;;;;;;1.52;1.40;;;;;;;;;;5102091;28;20043;-60
2022/08/09 04:03:48;;;;;;;1.50;1.30;;;;;;;;;;5098792;28;20068;-62
2022/08/09 04:06:15;;;;;;;2.72;1.80;;;;;;;;;;5092512;28;20075;-61
2022/08/09 04:08:42;;;;;;;2.78;1.95;;;;;;;;;;5101929;28;20417;-60
2022/08/09 04:11:10;;;;;;;2.45;1.80;;;;;;;;;;5091772;28;20044;-61
2022/08/09 04:13:37;;;;;;;2.28;1.90;;;;;;;;;;5096553;28;20051;-60
2022/08/09 04:16:05;;;;;;;2.67;1.85;;;;;;;;;;5093006;28;20051;-60
2022/08/09 04:18:32;;;;;;;2.70;1.95;;;;;;;;;;5078478;28;20051;-60
2022/08/09 04:21:01;;;;;;;4.50;2.40;;;;;;;;;;5096252;28;20048;-60
2022/08/09 04:23:28;;;;;;;3.88;2.10;;;;;;;;;;5098271;28;20047;-60
2022/08/09 04:25:55;;;;;;;5.28;2.40;;;;;;;;;;5083303;28;20067;-61
2022/08/09 04:28:22;;;;;;;3.33;1.70;;;;;;;;;;5099747;28;20043;-61
2022/08/09 04:30:49;;;;;;;3.75;1.95;;;;;;;;;;5093919;28;20048;-61
2022/08/09 04:33:17;;;;;;;3.20;1.90;;;;;;;;;;5100360;28;20409;-60
2022/08/09 04:35:44;;;;;;;4.15;1.88;;;;;;;;;;5101468;28;20043;-60
2022/08/09 04:38:12;;;;;;;1.67;1.23;;;;;;;;;;5100835;28;20048;-61
2022/08/09 04:40:49;;;;;;;4.43;1.73;;;;;;;;;;5096926;28;20129;-61
2022/08/09 04:43:16;;;;;;;4.68;1.75;;;;;;;;;;5101522;28;20048;-60
2022/08/09 04:45:43;;;;;;;6.00;1.70;;;;;;;;;;5102853;28;20052;-61
2022/08/09 04:48:11;;;;;;;3.30;1.98;;;;;;;;;;5102332;28;20043;-60
2022/08/09 04:50:39;;;;;;;4.88;2.45;;;;;;;;;;5104464;28;20062;-61
2022/08/09 04:53:06;;;;;;;2.40;1.95;;;;;;;;;;5084536;28;20863;-60
2022/08/09 04:55:35;;;;;;;3.80;2.08;;;;;;;;;;5102502;28;20075;-61
2022/08/09 04:58:02;;;;;;;4.40;2.10;;;;;;;;;;5101602;28;20043;-60
2022/08/09 05:00:33;;;;;;;3.03;1.98;;;;;;;;;;5104079;28;20717;-60
2022/08/09 05:03:01;;;;;;;2.50;2.00;;;;;;;;;;5097598;28;20410;-61
2022/08/09 05:05:28;;;;;;;4.13;2.20;;;;;;;;;;5097715;28;20055;-61
2022/08/09 05:07:55;;;;;;;2.13;1.92;;;;;;;;;;5072683;28;20769;-60
2022/08/09 05:10:22;;;;;;;4.82;2.20;;;;;;;;;;5105428;28;20591;-62
2022/08/09 05:12:51;;;;;;;3.38;2.30;;;;;;;;;;5109191;28;20043;-61
2022/08/09 05:15:18;;;;;;;5.03;2.58;;;;;;;;;;5106369;28;20047;-60
2022/08/09 05:17:45;;;;;;;4.15;2.80;;;;;;;;;;5107096;28;20048;-61
2022/08/09 05:20:13;;;;;;;3.20;2.55;;;;;;;;;;5102230;28;20502;-60
2022/08/09 05:22:40;;;;;;;4.18;2.65;;;;;;;;;;5087773;28;20123;-61
2022/08/09 05:25:07;;;;;;;4.97;3.45;;;;;;;;;;5105678;28;20051;-60
2022/08/09 05:27:35;;;;;;;3.80;2.92;;;;;;;;;;5104890;28;20047;-60
2022/08/09 05:30:03;;;;;;;5.93;3.20;;;;;;;;;;5107024;28;20499;-60
2022/08/09 05:32:30;;;;;;;5.53;3.25;;;;;;;;;;5104106;28;20047;-60
2022/08/09 05:34:58;;;;;;;5.65;3.33;;;;;;;;;;5107614;28;20043;-61
2022/08/09 05:37:25;;;;;;;7.22;3.58;;;;;;;;;;5105178;28;20158;-61
2022/08/09 05:39:52;;;;;;;7.53;3.70;;;;;;;;;;5094673;28;20132;-61
2022/08/09 05:42:20;;;;;;;5.18;3.63;;;;;;;;;;5106473;28;20062;-61
2022/08/09 05:44:47;;;;;;;4.97;3.58;;;;;;;;;;5109248;28;20552;-61
2022/08/09 05:47:16;;;;;;;5.43;3.58;;;;;;;;;;5097337;28;20044;-61
2022/08/09 05:49:43;;;;;;;6.03;3.80;;;;;;;;;;5098982;28;20047;-60
2022/08/09 05:52:10;;;;;;;6.00;3.47;;;;;;;;;;5103668;28;20052;-62
2022/08/09 05:54:37;;;;;;;8.38;4.32;;;;;;;;;;5103201;28;20418;-61
2022/08/09 05:57:04;;;;;;;4.85;3.55;;;;;;;;;;5102261;28;20096;-61
2022/08/09 05:59:32;;;;;;;8.13;4.47;;;;;;;;;;5079313;28;20048;-61
2022/08/09 06:01:59;;;;;;;8.88;5.03;;;;;;;;;;5103781;28;20485;-61
2022/08/09 06:04:27;;;;;;;8.65;4.13;;;;;;;;;;5103993;28;20051;-61
2022/08/09 06:06:55;;;;;;;7.40;4.65;;;;;;;;;;5097727;28;20482;-61
2022/08/09 06:09:22;;;;;;;8.00;5.10;;;;;;;;;;5103745;28;20043;-62
2022/08/09 06:11:49;;;;;;;11.88;5.43;;;;;;;;;;5104068;28;20040;-60
2022/08/09 06:14:16;;;;;;;9.40;4.90;;;;;;;;;;5101573;28;20047;-60
2022/08/09 06:16:44;;;;;;;8.43;4.85;;;;;;;;;;5101831;28;20131;-60
2022/08/09 06:19:13;;;;;;;8.07;4.60;;;;;;;;;;5100349;28;20055;-60
2022/08/09 06:21:42;;;;;;;6.70;4.25;;;;;;;;;;5105350;28;20127;-60
2022/08/09 06:24:09;;;;;;;7.55;4.05;;;;;;;;;;5107547;28;20039;-60
2022/08/09 06:26:40;;;;;;;9.70;4.00;;;;;;;;;;5104979;28;20059;-61
2022/08/09 06:29:08;;;;;;;8.25;4.80;;;;;;;;;;5101707;28;20100;-61
2022/08/09 06:31:36;;;;;;;9.77;4.68;;;;;;;;;;5104774;28;20482;-60
2022/08/09 06:34:05;;;;;;;8.45;4.43;;;;;;;;;;5104068;28;20043;-61
2022/08/09 06:36:32;;;;;;;8.88;4.35;;;;;;;;;;5103384;28;20040;-61
2022/08/09 06:39:01;;;;;;;11.57;4.20;;;;;;;;;;5104206;28;20120;-60
2022/08/09 06:41:28;;;;;;;7.45;4.20;;;;;;;;;;5098501;28;20052;-61
2022/08/09 06:43:55;;;;;;;7.03;3.63;;;;;;;;;;5101054;28;20049;-61
2022/08/09 06:46:23;;;;;;;9.52;4.30;;;;;;;;;;5104768;28;20390;-61
2022/08/09 06:48:50;;;;;;;6.72;4.32;;;;;;;;;;5103427;28;20181;-61
2022/08/09 06:51:17;;;;;;;8.82;4.40;;;;;;;;;;5095771;28;20048;-61
2022/08/09 06:53:44;;;;;;;7.20;3.92;;;;;;;;;;5101319;28;20051;-61
2022/08/09 06:56:13;;;;;;;10.48;4.53;;;;;;;;;;5103682;28;20071;-61
2022/08/09 06:58:40;;;;;;;7.35;4.53;;;;;;;;;;5103031;28;20097;-61
2022/08/09 07:01:07;;;;;;;11.18;4.10;;;;;;;;;;5106731;27;20636;-61
2022/08/09 07:03:35;;;;;;;8.45;3.88;;;;;;;;;;5105455;28;20154;-61
2022/08/09 07:06:02;;;;;;;7.22;4.03;;;;;;;;;;5105066;28;20104;-60
2022/08/09 07:08:30;;;;;;;6.85;4.15;;;;;;;;;;5105011;28;20132;-61
2022/08/09 07:10:57;;;;;;;7.88;3.85;;;;;;;;;;5104374;28;20051;-61
2022/08/09 07:13:26;;;;;;;5.93;3.53;;;;;;;;;;5105665;28;20051;-61
2022/08/09 07:15:53;;;;;;;5.82;3.53;;;;;;;;;;5106587;28;20050;-60
2022/08/09 07:18:20;;;;;;;5.38;3.60;;;;;;;;;;5086316;28;20135;-61
2022/08/09 07:20:49;;;;;;;6.20;3.38;;;;;;;;;;5106319;28;20061;-61
2022/08/09 07:23:17;;;;;;;8.65;3.58;;;;;;;;;;5084011;28;20227;-61
2022/08/09 07:25:44;;;;;;;5.05;2.80;;;;;;;;;;5104902;28;20667;-60
2022/08/09 07:28:11;;;;;;;7.57;3.70;;;;;;;;;;5101456;28;20431;-60
2022/08/09 07:30:40;;;;;;;7.63;2.88;;;;;;;;;;5099765;28;20051;-60
2022/08/09 07:33:07;;;;;;;5.30;2.70;;;;;;;;;;5098588;28;20043;-62
2022/08/09 07:35:34;;;;;;;7.65;3.40;;;;;;;;;;5105827;28;20449;-60
2022/08/09 07:38:01;;;;;;;5.45;2.58;;;;;;;;;;5103615;28;20048;-60
2022/08/09 07:40:29;;;;;;;7.45;2.95;;;;;;;;;;5099209;28;20085;-62
2022/08/09 07:42:58;;;;;;;7.40;3.15;;;;;;;;;;5098225;28;20051;-61
2022/08/09 07:45:26;;;;;;;5.03;2.55;;;;;;;;;;5101395;28;20071;-60
2022/08/09 07:47:55;;;;;;;5.63;2.50;;;;;;;;;;5101090;28;20087;-61
2022/08/09 07:50:24;;;;;;;4.05;1.77;;;;;;;;;;5098060;28;20055;-62
2022/08/09 07:52:51;;;;;;;6.38;2.00;;;;;;;;;;5101356;28;20087;-62
2022/08/09 07:55:18;;;;;;;6.53;2.15;;;;;;;;;;5099728;28;20052;-62
2022/08/09 07:57:47;;;;;;;5.88;1.80;;;;;;;;;;5104029;28;20062;-61
2022/08/09 08:00:15;;;;;;;5.63;1.40;;;;;;;;;;5098879;28;20101;-61
2022/08/09 08:02:42;;;;;;;6.32;1.60;;;;;;;;;;5103831;28;20043;-61
2022/08/09 08:05:11;;;;;;;3.55;1.35;;;;;;;;;;5104311;28;20517;-61
2022/08/09 08:07:38;;;;;;;3.05;1.20;;;;;;;;;;5101783;28;20044;-61
2022/08/09 08:10:06;;;;;;;5.85;1.50;;;;;;;;;;5100556;28;20059;-61
2022/08/09 08:12:33;;;;;;;4.07;1.50;;;;;;;;;;5099916;28;20044;-61
2022/08/09 08:15:01;;;;;;;4.35;1.60;;;;;;;;;;5099446;28;20055;-61
2022/08/09 08:17:28;;;;;;;4.72;1.52;;;;;;;;;;5104688;28;20137;-61
2022/08/09 08:19:55;;;;;;;5.97;1.95;;;;;;;;;;5103012;28;20067;-61
2022/08/09 08:22:24;;;;;;;6.32;1.70;;;;;;;;;;5096683;28;20077;-61
2022/08/09 08:24:54;;;;;;;4.35;1.50;;;;;;;;;;5103987;28;20113;-60
2022/08/09 08:27:22;;;;;;;3.90;1.52;;;;;;;;;;5103785;28;20071;-60
2022/08/09 08:29:49;;;;;;;2.97;1.30;;;;;;;;;;5103086;28;20119;-61
2022/08/09 08:32:17;;;;;;;2.95;1.17;;;;;;;;;;5104755;28;20059;-61
2022/08/09 08:34:44;;;;;;;5.00;1.40;;;;;;;;;;5100420;28;20113;-61
2022/08/09 08:37:11;;;;;;;1.95;1.00;;;;;;;;;;5105122;28;20052;-61
2022/08/09 08:39:40;;;;;;;4.32;1.20;;;;;;;;;;5104055;28;20043;-60
2022/08/09 08:42:08;;;;;;;6.60;1.40;;;;;;;;;;5103739;28;20415;-62
2022/08/09 08:44:35;;;;;;;4.07;1.38;;;;;;;;;;5106108;28;20122;-61
2022/08/09 08:47:03;;;;;;;5.35;1.60;;;;;;;;;;5089751;28;20043;-62
2022/08/09 08:49:31;;;;;;;3.95;0.90;;;;;;;;;;5090083;28;20559;-61
2022/08/09 08:51:58;;;;;;;2.80;1.10;;;;;;;;;;5108199;28;20055;-61
2022/08/09 08:54:26;;;;;;;3.70;1.30;;;;;;;;;;5107833;28;20039;-61
2022/08/09 08:56:55;;;;;;;5.18;1.10;;;;;;;;;;5109159;28;20065;-61
2022/08/09 08:59:22;;;;;;;4.22;1.30;;;;;;;;;;5105194;28;20526;-62
2022/08/09 09:01:51;;;;;;;4.15;1.10;;;;;;;;;;5102760;28;20055;-61
2022/08/09 09:04:19;;;;;;;3.05;1.20;;;;;;;;;;5086177;28;20059;-61
2022/08/09 09:06:48;;;;;;;3.30;0.90;;;;;;;;;;5103680;28;20478;-61
2022/08/09 09:09:16;;;;;;;3.75;1.02;;;;;;;;;;5095189;28;20052;-61
2022/08/09 09:11:43;;;;;;;3.60;1.33;;;;;;;;;;5098483;28;20089;-60
2022/08/09 09:14:14;;;;;;;5.15;1.00;;;;;;;;;;5107851;28;20074;-61
2022/08/09 09:16:41;;;;;;;2.67;0.90;;;;;;;;;;5106918;28;20043;-61
2022/08/09 09:19:09;;;;;;;1.92;0.75;;;;;;;;;;5100818;28;20594;-62
2022/08/09 09:21:36;;;;;;;2.33;1.08;;;;;;;;;;5106546;28;20505;-62
2022/08/09 09:24:04;;;;;;;2.58;0.90;;;;;;;;;;5109228;28;20059;-61
2022/08/09 09:26:33;;;;;;;1.15;0.57;;;;;;;;;;5105878;28;20051;-61
2022/08/09 09:29:01;;;;;;;3.80;0.90;;;;;;;;;;5100616;28;20052;-61
2022/08/09 09:31:29;;;;;;;1.70;0.70;;;;;;;;;;5105978;28;20047;-61
2022/08/09 09:34:11;;;;;;;2.38;0.70;;;;;;;;;;5109300;28;20051;-61
2022/08/09 09:36:39;;;;;;;2.63;1.10;;;;;;;;;;5105549;28;20096;-61
2022/08/09 09:39:08;;;;;;;2.63;0.90;;;;;;;;;;5106931;28;20071;-62
2022/08/09 09:41:36;;;;;;;1.73;0.70;;;;;;;;;;5106710;28;20054;-61
2022/08/09 09:44:05;;;;;;;2.50;0.90;;;;;;;;;;5100557;28;20048;-62
2022/08/09 09:46:34;;;;;;;1.45;0.63;;;;;;;;;;5076606;28;20083;-61
2022/08/09 09:49:03;;;;;;;1.73;0.82;;;;;;;;;;5102861;28;20109;-61
2022/08/09 09:51:31;;;;;;;1.95;0.70;;;;;;;;;;5099010;28;20054;-62
2022/08/09 09:54:05;;;;;;;4.90;0.90;;;;;;;;;;5078861;28;20051;-62
2022/08/09 09:56:32;;;;;;;2.58;1.00;;;;;;;;;;5099513;28;20130;-61
2022/08/09 09:59:00;;;;;;;1.90;0.80;;;;;;;;;;5104993;28;20109;-62
2022/08/09 10:01:28;;;;;;;2.97;1.02;;;;;;;;;;5103396;28;20509;-62
2022/08/09 10:03:56;;;;;;;2.58;1.00;;;;;;;;;;5104621;28;20046;-61
2022/08/09 10:06:24;;;;;;;2.83;0.88;;;;;;;;;;5098904;28;20637;-61
2022/08/09 10:08:51;;;;;;;3.70;0.85;;;;;;;;;;5104484;28;20047;-61
2022/08/09 10:11:20;;;;;;;4.10;0.98;;;;;;;;;;5087044;28;20051;-61
2022/08/09 10:13:47;;;;;;;3.42;0.70;;;;;;;;;;5104392;28;20057;-62
2022/08/09 10:16:14;;;;;;;1.73;0.70;;;;;;;;;;5101786;28;20051;-61
2022/08/09 10:18:50;;;;;;;2.38;1.02;;;;;;;;;;5106552;28;20306;-61
2022/08/09 10:21:20;;;;;;;1.85;0.63;;;;;;;;;;5098895;28;20132;-62
2022/08/09 10:23:48;;;;;;;2.53;0.90;;;;;;;;;;5107302;28;20059;-61
2022/08/09 10:26:15;;;;;;;2.55;1.17;;;;;;;;;;5100610;28;20534;-61
2022/08/09 10:28:43;;;;;;;3.55;0.93;;;;;;;;;;5103623;28;20051;-61
2022/08/09 10:31:12;;;;;;;2.80;0.80;;;;;;;;;;5103549;28;20583;-62
2022/08/09 10:33:39;;;;;;;2.80;0.88;;;;;;;;;;5100378;28;20089;-62
2022/08/09 10:36:07;;;;;;;6.90;1.40;;;;;;;;;;5098969;28;20056;-61
2022/08/09 10:38:36;;;;;;;3.00;0.80;;;;;;;;;;5104866;28;20055;-61
2022/08/09 10:41:04;;;;;;;3.20;1.00;;;;;;;;;;5097481;28;20056;-61
2022/08/09 10:43:31;;;;;;;8.00;1.35;;;;;;;;;;5103342;28;20492;-61
2022/08/09 10:46:02;;;;;;;2.42;0.90;;;;;;;;;;5098391;28;20051;-61
2022/08/09 10:48:33;;;;;;;5.07;1.08;;;;;;;;;;5079829;28;20101;-62
2022/08/09 10:51:08;;;;;;;2.38;0.80;;;;;;;;;;5083408;28;20055;-61
2022/08/09 10:53:50;;;;;;;3.95;0.85;;;;;;;;;;5098768;28;20426;-61
2022/08/09 10:56:21;;;;;;;1.58;0.70;;;;;;;;;;5093519;28;20538;-62
2022/08/09 10:58:48;;;;;;;2.00;0.90;;;;;;;;;;5085905;28;20071;-62
2022/08/09 11:01:36;;;;;;;2.00;0.98;;;;;;;;;;5105739;28;20131;-61
2022/08/09 11:04:13;;;;;;;2.10;0.70;;;;;;;;;;5096965;28;20059;-61
2022/08/09 11:06:41;;;;;;;3.78;1.00;;;;;;;;;;5104476;27;20127;-61
2022/08/09 11:09:09;;;;;;;2.08;0.90;;;;;;;;;;5105984;28;20043;-62
2022/08/09 11:11:51;;;;;;;3.05;1.08;;;;;;;;;;5105083;28;20456;-61
2022/08/09 11:14:34;;;;;;;37.95;4.13;;;;;;;;;;5085854;28;20060;-61
2022/08/09 11:17:01;;;;;;;2.28;0.80;;;;;;;;;;5105946;28;20066;-61
2022/08/09 11:19:43;;;;;;;2.95;0.60;;;;;;;;;;5103796;28;20039;-62
2022/08/09 11:22:11;;;;;;;1.85;0.70;;;;;;;;;;5103948;28;20051;-61
2022/08/09 11:24:56;;;;;;;18.50;2.10;;;;;;;;;;5105951;28;20116;-62
2022/08/09 11:27:30;;;;;;;15.55;2.30;;;;;;;;;;5103331;28;20581;-61
2022/08/09 11:29:59;;;;;;;61.60;9.05;;;;;;;;;;5098035;28;20757;-61
2022/08/09 11:32:41;;;;;;;4.35;0.90;;;;;;;;;;5083201;28;20463;-61
2022/08/09 11:35:10;;;;;;;3.78;0.98;;;;;;;;;;5104195;28;20432;-61
2022/08/09 11:37:39;;;;;;;5.10;0.80;;;;;;;;;;5103575;28;20047;-62
2022/08/09 11:40:08;;;;;;;2.20;0.80;;;;;;;;;;5104866;28;20043;-61
2022/08/09 11:42:39;;;;;;;3.95;0.88;;;;;;;;;;5102714;28;20051;-61
2022/08/09 11:45:08;;;;;;;;;;;;;;;;;;5096870;28;20054;-62
2022/08/09 11:47:46;;;;;;;2.40;0.82;;;;;;;;;;5100180;28;19928;-61
2022/08/09 11:50:13;;;;;;;3.75;1.00;;;;;;;;;;5103152;28;20101;-61
2022/08/09 11:52:55;;;;;;;1.48;0.70;;;;;;;;;;5105149;28;20055;-62
2022/08/09 11:55:32;;;;;;;1.63;0.77;;;;;;;;;;5082611;28;20039;-62
2022/08/09 11:58:00;;;;;;;2.88;0.90;;;;;;;;;;5100080;28;20058;-61
2022/08/09 12:00:28;;;;;;;2.33;0.60;;;;;;;;;;5104275;28;20050;-62
2022/08/09 12:02:58;;;;;;;1.55;0.65;;;;;;;;;;5101352;28;20096;-61
2022/08/09 12:05:32;;;;;;;3.30;0.98;;;;;;;;;;5102861;28;20214;-61
2022/08/09 12:07:59;;;;;;;3.88;0.70;;;;;;;;;;5105101;28;20062;-62
2022/08/09 12:10:27;;;;;;;3.10;0.88;;;;;;;;;;5101658;28;20496;-61
2022/08/09 12:12:54;;;;;;;3.33;1.00;;;;;;;;;;5104783;28;20047;-61
2022/08/09 12:15:22;;;;;;;5.38;1.00;;;;;;;;;;5086886;28;20052;-61
2022/08/09 12:17:50;;;;;;;2.08;0.82;;;;;;;;;;5103812;28;20107;-62
2022/08/09 12:20:20;;;;;;;3.58;0.88;;;;;;;;;;5098107;28;20525;-62
2022/08/09 12:22:47;;;;;;;2.90;1.00;;;;;;;;;;5105029;28;20057;-62
2022/08/09 12:25:16;;;;;;;2.53;0.90;;;;;;;;;;5097201;28;20048;-62
2022/08/09 12:27:43;;;;;;;3.97;0.90;;;;;;;;;;5085033;28;20870;-62
2022/08/09 12:30:12;;;;;;;2.40;0.80;;;;;;;;;;5095654;28;20044;-62
2022/08/09 12:32:39;;;;;;;2.78;1.00;;;;;;;;;;5102591;28;20047;-63
2022/08/09 12:35:08;;;;;;;4.03;1.10;;;;;;;;;;5102645;28;20123;-63
2022/08/09 12:37:38;;;;;;;1.90;0.93;;;;;;;;;;5101085;28;20078;-62
2022/08/09 12:40:06;;;;;;;1.95;1.02;;;;;;;;;;5105275;28;20109;-63
2022/08/09 12:42:33;;;;;;;2.97;1.23;;;;;;;;;;5080715;28;20053;-63
2022/08/09 12:45:01;;;;;;;2.10;0.90;;;;;;;;;;5082909;28;20056;-62
2022/08/09 12:47:29;;;;;;;2.75;0.85;;;;;;;;;;5080694;28;20048;-63
2022/08/09 12:52:44;;;;;;;2.28;1.00;;;;;;;;;;5084521;28;20032;-62
2022/08/09 12:55:12;;;;;;;2.42;1.02;;;;;;;;;;5076718;28;20049;-62
2022/08/09 12:57:39;;;;;;;1.75;0.95;;;;;;;;;;5083324;28;20138;-62
2022/08/09 13:00:17;;;;;;;1.48;0.98;;;;;;;;;;5084060;28;20052;-62
2022/08/09 13:02:52;;;;;;;2.83;1.05;;;;;;;;;;5081803;28;20495;-62
2022/08/09 13:05:20;;;;;;;1.27;1.00;;;;;;;;;;5078869;28;20506;-62
2022/08/09 13:08:02;;;;;;;1.25;1.00;;;;;;;;;;5082285;28;20134;-63
2022/08/09 13:10:31;;;;;;;2.08;1.10;;;;;;;;;;5068937;28;20059;-63
2022/08/09 13:12:59;;;;;;;2.80;0.93;;;;;;;;;;5079373;28;20095;-63
2022/08/09 13:15:26;;;;;;;2.28;1.13;;;;;;;;;;5079144;28;20090;-62
2022/08/09 13:17:53;;;;;;;1.75;1.13;;;;;;;;;;5080296;28;20052;-63
2022/08/09 13:20:32;;;;;;;1.38;1.20;;;;;;;;;;5084641;28;20044;-63
2022/08/09 13:23:00;;;;;;;3.83;1.20;;;;;;;;;;5084445;28;20162;-62
2022/08/09 13:25:37;;;;;;;3.03;1.10;;;;;;;;;;5075991;28;20047;-63
2022/08/09 13:34:51;;;;;;;7.30;1.30;;;;;;;;;;5084797;28;20038;-62
2022/08/09 13:37:18;;;;;;;2.47;1.10;;;;;;;;;;5085702;28;20055;-63
2022/08/09 13:39:45;;;;;;;1.83;1.20;;;;;;;;;;5078549;28;20067;-63
2022/08/09 13:42:14;;;;;;;2.13;1.15;;;;;;;;;;5089016;28;20091;-63
2022/08/09 13:44:42;;;;;;;1.40;1.15;;;;;;;;;;5103152;28;20044;-63
2022/08/09 13:47:11;;;;;;;1.83;1.20;;;;;;;;;;5101879;28;20085;-63
2022/08/09 13:49:39;;;;;;;1.27;1.10;;;;;;;;;;5108542;28;20444;-63
2022/08/09 13:52:07;;;;;;;1.08;1.08;;;;;;;;;;5103562;28;20470;-63
2022/08/09 13:54:35;;;;;;;1.13;1.02;;;;;;;;;;5103643;28;20051;-63
2022/08/09 13:57:02;;;;;;;1.83;1.20;;;;;;;;;;5107004;28;20055;-63
2022/08/09 13:59:29;;;;;;;3.08;1.20;;;;;;;;;;5100444;28;20096;-63
2022/08/09 14:01:56;;;;;;;6.85;1.23;;;;;;;;;;5107803;28;20051;-64
2022/08/09 14:04:24;;;;;;;2.17;1.33;;;;;;;;;;5105326;28;20498;-63
2022/08/09 14:06:54;;;;;;;2.33;1.33;;;;;;;;;;5107595;28;20051;-62
2022/08/09 14:09:23;;;;;;;1.50;1.30;;;;;;;;;;5106626;28;20770;-63
2022/08/09 14:11:51;;;;;;;1.40;1.30;;;;;;;;;;5096285;28;20048;-62
2022/08/09 14:14:18;;;;;;;1.38;1.27;;;;;;;;;;5105862;28;20115;-63
2022/08/09 14:16:47;;;;;;;2.40;1.30;;;;;;;;;;5105134;28;20155;-62
2022/08/09 14:19:14;;;;;;;1.52;1.30;;;;;;;;;;5101119;28;20047;-62
2022/08/09 14:21:42;;;;;;;1.30;1.20;;;;;;;;;;5104324;28;20110;-63
2022/08/09 14:24:09;;;;;;;1.88;1.40;;;;;;;;;;5101516;28;20414;-63
2022/08/09 14:26:38;;;;;;;3.05;1.25;;;;;;;;;;5104950;28;20144;-63
2022/08/09 14:29:06;;;;;;;1.40;1.30;;;;;;;;;;5106962;28;20051;-64
2022/08/09 14:31:33;;;;;;;1.45;1.23;;;;;;;;;;5105289;28;20573;-63
2022/08/09 14:34:00;;;;;;;1.20;1.10;;;;;;;;;;5106758;28;20130;-63
2022/08/09 14:36:27;;;;;;;1.20;1.10;;;;;;;;;;5105452;28;20062;-63
2022/08/09 14:38:55;;;;;;;1.40;1.30;;;;;;;;;;5097292;28;20578;-63
2022/08/09 14:41:22;;;;;;;2.53;1.40;;;;;;;;;;5105603;28;20080;-64
2022/08/09 14:43:51;;;;;;;1.83;1.20;;;;;;;;;;5102507;28;20079;-63
2022/08/09 14:46:18;;;;;;;1.65;1.55;;;;;;;;;;5104245;28;20059;-63
2022/08/09 14:48:45;;;;;;;1.40;1.30;;;;;;;;;;5098340;28;20059;-63
2022/08/09 14:51:13;;;;;;;1.58;1.48;;;;;;;;;;5107274;28;20120;-62
2022/08/09 14:53:40;;;;;;;2.75;1.40;;;;;;;;;;5104480;28;20074;-63
2022/08/09 14:56:08;;;;;;;2.17;1.45;;;;;;;;;;5092333;28;20046;-63
2022/08/09 14:58:36;;;;;;;1.40;1.30;;;;;;;;;;5103535;28;20129;-63
2022/08/09 15:01:05;;;;;;;1.65;1.40;;;;;;;;;;5107283;28;20065;-63